Time;durP1;ratioP1;P1;durP2;ratioP2;P2;SDS_P1;SDS_P2;PMS_P1;PMS_P2;Temp;Humidity;BMP_temperature;BMP_pressure;BME280_temperature;BME280_humidity;BME280_pressure;Samples;Min_cycle;Max_cycle;Signal;HPM_P1;HPM_P2
2022/09/06 00:01:28;;;;;;;2.15;1.60;;;21.90;45.00;;;;;;5067454;28;20433;-71
2022/09/06 00:03:55;;;;;;;3.30;1.70;;;21.90;45.00;;;;;;5083638;28;20445;-71
2022/09/06 00:06:21;;;;;;;1.98;1.70;;;22.00;45.50;;;;;;5083423;28;20788;-71
2022/09/06 00:08:49;;;;;;;2.58;1.70;;;21.90;45.50;;;;;;5084523;28;20418;-72
2022/09/06 00:11:17;;;;;;;1.60;1.50;;;21.90;45.90;;;;;;5081643;28;20433;-71
2022/09/06 00:13:45;;;;;;;2.10;1.50;;;21.90;45.70;;;;;;5083754;28;20426;-71
2022/09/06 00:16:13;;;;;;;2.00;1.90;;;21.90;45.50;;;;;;5084126;28;20416;-71
2022/09/06 00:18:40;;;;;;;3.78;2.50;;;21.90;47.60;;;;;;5084123;28;20425;-71
2022/09/06 00:21:15;;;;;;;2.20;2.00;;;21.80;55.70;;;;;;5082692;28;20426;-71
2022/09/06 00:23:42;;;;;;;3.55;2.33;;;21.30;60.70;;;;;;5083669;28;20788;-71
2022/09/06 00:26:11;;;;;;;2.33;2.10;;;20.80;64.40;;;;;;5084019;28;20421;-71
2022/09/06 00:28:38;;;;;;;4.22;2.80;;;20.40;59.40;;;;;;5083145;28;20429;-71
2022/09/06 00:31:09;;;;;;;5.55;3.80;;;20.00;64.10;;;;;;5073117;28;20494;-71
2022/09/06 00:33:36;;;;;;;7.28;4.20;;;19.50;71.40;;;;;;5063683;28;20424;-73
2022/09/06 00:36:03;;;;;;;5.03;4.53;;;19.10;76.50;;;;;;5072633;28;20863;-73
2022/09/06 00:38:30;;;;;;;5.20;4.70;;;18.80;79.20;;;;;;5083742;28;20922;-73
2022/09/06 00:40:57;;;;;;;7.70;5.40;;;18.60;82.00;;;;;;5079606;28;20522;-73
2022/09/06 00:43:25;;;;;;;6.53;5.83;;;18.50;85.30;;;;;;5079696;28;20437;-72
2022/09/06 00:45:53;;;;;;;6.47;5.88;;;18.30;87.00;;;;;;5067636;28;20419;-72
2022/09/06 00:48:21;;;;;;;6.50;5.90;;;18.20;88.70;;;;;;5083280;28;20424;-73
2022/09/06 00:50:50;;;;;;;6.22;5.60;;;18.10;90.20;;;;;;5080048;28;20426;-73
2022/09/06 00:53:18;;;;;;;7.40;5.90;;;18.00;90.50;;;;;;5083543;28;21003;-73
2022/09/06 00:55:45;;;;;;;5.60;5.10;;;18.00;90.70;;;;;;5083910;28;20422;-73
2022/09/06 00:58:13;;;;;;;6.15;5.20;;;17.90;90.40;;;;;;5082521;28;20425;-74
2022/09/06 01:00:41;;;;;;;6.20;5.70;;;17.90;90.80;;;;;;5074200;28;20433;-74
2022/09/06 01:03:10;;;;;;;6.55;5.60;;;17.80;90.90;;;;;;5083741;28;20417;-74
2022/09/06 01:05:45;;;;;;;5.72;5.13;;;17.80;91.20;;;;;;5077670;28;20433;-72
2022/09/06 01:08:20;;;;;;;7.13;5.72;;;17.80;90.90;;;;;;5080108;28;20918;-72
2022/09/06 01:11:03;;;;;;;6.50;5.85;;;17.80;90.70;;;;;;5081243;28;20922;-73
2022/09/06 01:13:39;;;;;;;7.32;6.00;;;17.80;90.60;;;;;;5086329;28;20424;-74
2022/09/06 01:16:13;;;;;;;8.38;6.60;;;17.80;90.50;;;;;;5083255;28;20425;-75
2022/09/06 01:19:00;;;;;;;6.82;6.13;;;17.80;90.60;;;;;;5087590;28;20398;-74
2022/09/06 01:21:40;;;;;;;7.50;6.20;;;17.80;90.30;;;;;;5079771;28;20523;-72
2022/09/06 01:24:40;;;;;;;9.00;6.57;;;17.90;90.20;;;;;;5086586;28;20492;-71
2022/09/06 01:27:32;;;;;;;7.03;5.80;;;17.90;90.30;;;;;;5085825;28;20440;-74
2022/09/06 01:30:05;;;;;;;6.20;5.60;;;18.00;89.90;;;;;;5082738;28;20792;-72
2022/09/06 01:32:39;;;;;;;7.00;5.60;;;18.00;88.90;;;;;;5066843;28;20415;-72
2022/09/06 01:35:13;;;;;;;5.70;5.20;;;18.10;87.30;;;;;;5078775;28;20433;-74
2022/09/06 01:37:40;;;;;;;5.97;5.38;;;18.20;87.00;;;;;;5081661;28;20441;-71
2022/09/06 01:40:08;;;;;;;6.53;5.87;;;18.30;86.80;;;;;;5085545;28;20489;-74
2022/09/06 01:42:36;;;;;;;6.18;5.57;;;18.30;86.90;;;;;;5077818;28;20499;-72
2022/09/06 01:45:08;;;;;;;6.43;4.90;;;18.40;87.00;;;;;;5086566;28;20417;-71
2022/09/06 01:47:40;;;;;;;5.00;4.50;;;18.40;86.60;;;;;;5086427;28;20471;-71
2022/09/06 01:50:34;;;;;;;5.50;4.80;;;18.40;86.90;;;;;;5081583;28;20452;-72
2022/09/06 01:53:11;;;;;;;5.50;4.80;;;18.50;86.00;;;;;;5082023;28;20418;-74
2022/09/06 01:55:44;;;;;;;5.65;5.13;;;18.50;86.70;;;;;;5087326;28;20414;-73
2022/09/06 01:58:39;;;;;;;5.57;5.07;;;18.50;88.40;;;;;;5086083;28;20701;-72
2022/09/06 02:01:17;;;;;;;6.20;5.60;;;18.50;89.40;;;;;;5084266;28;20925;-71
2022/09/06 02:03:52;;;;;;;6.00;5.40;;;18.50;90.80;;;;;;5083878;28;20452;-74
2022/09/06 02:06:26;;;;;;;6.20;5.60;;;18.60;90.40;;;;;;5085521;28;20426;-74
2022/09/06 02:08:57;;;;;;;5.30;4.90;;;18.60;91.00;;;;;;5080967;28;20434;-73
2022/09/06 02:11:27;;;;;;;5.90;5.40;;;18.60;88.80;;;;;;5069607;28;20448;-73
2022/09/06 02:13:57;;;;;;;7.20;5.20;;;18.60;88.80;;;;;;5066689;28;20423;-74
2022/09/06 02:16:28;;;;;;;5.68;5.18;;;18.50;88.70;;;;;;5080571;28;20752;-73
2022/09/06 02:19:00;;;;;;;5.70;5.10;;;18.60;89.00;;;;;;5086755;28;20499;-74
2022/09/06 02:21:31;;;;;;;6.97;5.30;;;18.60;89.00;;;;;;5094161;28;20478;-73
2022/09/06 02:24:03;;;;;;;5.90;5.30;;;18.50;89.20;;;;;;5086974;28;20764;-74
2022/09/06 02:26:35;;;;;;;6.10;5.50;;;18.60;90.10;;;;;;5086523;28;20405;-74
2022/09/06 02:29:02;;;;;;;5.30;4.90;;;18.60;90.10;;;;;;5066673;28;20407;-74
2022/09/06 02:31:34;;;;;;;6.18;5.72;;;18.60;89.90;;;;;;5072356;28;20433;-74
2022/09/06 02:34:01;;;;;;;6.40;5.80;;;18.60;90.20;;;;;;5083646;28;20448;-73
2022/09/06 02:36:30;;;;;;;6.65;6.05;;;18.60;90.60;;;;;;5084744;28;20436;-74
2022/09/06 02:38:59;;;;;;;7.22;6.10;;;18.60;90.10;;;;;;5083642;28;20437;-74
2022/09/06 02:41:27;;;;;;;6.57;5.97;;;18.60;90.50;;;;;;5083321;28;20505;-74
2022/09/06 02:43:54;;;;;;;6.03;5.53;;;18.60;91.30;;;;;;5085359;28;20424;-74
2022/09/06 02:46:23;;;;;;;6.50;5.80;;;18.70;91.30;;;;;;5083920;28;20814;-74
2022/09/06 02:48:51;;;;;;;7.25;6.10;;;18.70;91.20;;;;;;5079235;28;20441;-74
2022/09/06 02:51:19;;;;;;;7.25;6.40;;;18.70;90.80;;;;;;5084690;28;21012;-74
2022/09/06 02:53:46;;;;;;;6.63;6.00;;;18.70;90.90;;;;;;5080070;28;20499;-74
2022/09/06 02:56:13;;;;;;;6.07;5.57;;;18.60;90.40;;;;;;5084884;28;20748;-74
2022/09/06 02:58:40;;;;;;;6.32;5.57;;;18.70;89.80;;;;;;5084540;28;20410;-73
2022/09/06 03:01:06;;;;;;;6.40;5.70;;;18.60;89.40;;;;;;5083148;28;20429;-73
2022/09/06 03:03:33;;;;;;;6.85;6.22;;;18.70;89.30;;;;;;5083629;28;20429;-74
2022/09/06 03:06:02;;;;;;;6.30;5.70;;;18.70;89.00;;;;;;5085545;28;20425;-74
2022/09/06 03:08:32;;;;;;;6.43;5.75;;;18.70;90.00;;;;;;5084494;28;20531;-74
2022/09/06 03:11:00;;;;;;;6.80;6.27;;;18.70;90.10;;;;;;5084280;28;20520;-74
2022/09/06 03:13:27;;;;;;;6.30;5.78;;;18.70;90.60;;;;;;5084743;28;20413;-74
2022/09/06 03:15:56;;;;;;;6.30;5.68;;;18.80;90.40;;;;;;5084803;28;20436;-73
2022/09/06 03:18:23;;;;;;;6.00;5.50;;;18.80;90.50;;;;;;5083959;28;20518;-73
2022/09/06 03:20:50;;;;;;;6.55;5.82;;;18.80;90.30;;;;;;5084118;28;20805;-73
2022/09/06 03:23:18;;;;;;;6.25;5.65;;;18.80;90.30;;;;;;5084760;28;20527;-74
2022/09/06 03:25:45;;;;;;;6.43;5.90;;;18.80;90.40;;;;;;5084192;28;20438;-74
2022/09/06 03:28:12;;;;;;;7.00;6.13;;;18.80;90.70;;;;;;5084586;28;20774;-74
2022/09/06 03:30:39;;;;;;;5.80;5.30;;;18.80;91.10;;;;;;5075004;28;20423;-74
2022/09/06 03:33:06;;;;;;;6.13;5.60;;;18.80;90.50;;;;;;5076257;28;20433;-73
2022/09/06 03:35:33;;;;;;;6.05;5.55;;;18.80;90.50;;;;;;5083868;28;20887;-73
2022/09/06 03:37:59;;;;;;;6.95;6.32;;;18.80;90.20;;;;;;5084260;28;20505;-74
2022/09/06 03:40:28;;;;;;;6.23;5.63;;;18.80;90.50;;;;;;5084445;28;20575;-74
2022/09/06 03:42:54;;;;;;;6.00;5.50;;;18.80;90.60;;;;;;5080984;28;20954;-74
2022/09/06 03:45:21;;;;;;;6.05;5.55;;;18.80;90.60;;;;;;5083854;28;20811;-74
2022/09/06 03:47:48;;;;;;;6.10;5.50;;;18.80;90.60;;;;;;5083257;28;20437;-74
2022/09/06 03:50:15;;;;;;;6.40;5.80;;;18.70;90.40;;;;;;5083390;28;20460;-74
2022/09/06 03:52:41;;;;;;;6.07;5.57;;;18.70;90.10;;;;;;5081499;28;20509;-74
2022/09/06 03:55:10;;;;;;;6.43;5.82;;;18.70;90.40;;;;;;5064849;28;20424;-74
2022/09/06 03:57:38;;;;;;;6.40;5.90;;;18.60;89.90;;;;;;5069704;28;20834;-75
2022/09/06 04:00:06;;;;;;;6.72;6.10;;;18.60;90.30;;;;;;5082772;28;20422;-74
2022/09/06 04:02:33;;;;;;;6.20;5.70;;;18.60;90.40;;;;;;5081650;28;20522;-74
2022/09/06 04:04:59;;;;;;;6.97;6.40;;;18.60;90.40;;;;;;5081455;28;20938;-73
2022/09/06 04:07:26;;;;;;;6.30;5.68;;;18.50;91.10;;;;;;5080945;28;20451;-74
2022/09/06 04:09:53;;;;;;;6.90;6.30;;;18.50;91.20;;;;;;5080696;28;20901;-73
2022/09/06 04:12:20;;;;;;;6.30;5.65;;;18.50;91.20;;;;;;5078746;28;20434;-74
2022/09/06 04:14:48;;;;;;;7.07;6.38;;;18.50;90.60;;;;;;5079239;28;20444;-74
2022/09/06 04:17:14;;;;;;;6.00;5.50;;;18.50;90.90;;;;;;5078941;28;20516;-74
2022/09/06 04:19:41;;;;;;;6.60;6.10;;;18.40;90.90;;;;;;5078625;28;21357;-74
2022/09/06 04:22:08;;;;;;;7.22;6.53;;;18.40;90.70;;;;;;5079992;28;20426;-74
2022/09/06 04:24:35;;;;;;;7.47;6.80;;;18.40;90.60;;;;;;5074990;28;20426;-73
2022/09/06 04:27:01;;;;;;;6.73;6.23;;;18.40;90.60;;;;;;5083796;28;20413;-73
2022/09/06 04:29:28;;;;;;;7.68;6.30;;;18.30;90.30;;;;;;5080360;28;20421;-73
2022/09/06 04:31:56;;;;;;;7.13;6.53;;;18.30;89.90;;;;;;5082209;28;20417;-73
2022/09/06 04:34:23;;;;;;;6.70;6.10;;;18.30;90.60;;;;;;5082521;28;20434;-73
2022/09/06 04:36:49;;;;;;;7.30;6.60;;;18.30;90.60;;;;;;5083755;28;20418;-72
2022/09/06 04:39:16;;;;;;;7.70;7.00;;;18.30;90.10;;;;;;5081494;28;20438;-74
2022/09/06 04:41:43;;;;;;;7.20;6.50;;;18.30;90.50;;;;;;5083380;28;20425;-73
2022/09/06 04:44:09;;;;;;;7.68;6.55;;;18.30;90.20;;;;;;5079775;28;20414;-73
2022/09/06 04:46:36;;;;;;;7.63;6.93;;;18.30;90.20;;;;;;5081521;28;20879;-74
2022/09/06 04:49:04;;;;;;;7.20;6.60;;;18.30;90.10;;;;;;5086667;28;20857;-73
2022/09/06 04:51:31;;;;;;;7.10;6.40;;;18.30;90.60;;;;;;5087704;28;20524;-73
2022/09/06 04:53:58;;;;;;;6.70;6.00;;;18.20;90.50;;;;;;5087789;28;20886;-74
2022/09/06 04:56:26;;;;;;;7.40;6.67;;;18.20;90.10;;;;;;5087271;28;20518;-73
2022/09/06 04:58:54;;;;;;;7.40;6.80;;;18.20;90.10;;;;;;5087404;28;20493;-72
2022/09/06 05:01:21;;;;;;;7.43;6.80;;;18.20;90.50;;;;;;5083898;28;20449;-73
2022/09/06 05:03:48;;;;;;;7.40;6.90;;;18.30;90.80;;;;;;5086459;28;20890;-73
2022/09/06 05:06:21;;;;;;;7.75;6.53;;;18.20;90.90;;;;;;5084984;28;20432;-74
2022/09/06 05:08:48;;;;;;;6.00;5.50;;;18.20;90.90;;;;;;5087052;28;20444;-71
2022/09/06 05:11:16;;;;;;;6.68;6.18;;;18.20;90.10;;;;;;5085856;28;20417;-71
2022/09/06 05:13:42;;;;;;;5.63;5.13;;;18.20;89.50;;;;;;5086204;28;20492;-71
2022/09/06 05:16:09;;;;;;;6.30;5.70;;;18.20;87.70;;;;;;5085991;28;20444;-71
2022/09/06 05:18:36;;;;;;;5.97;5.38;;;18.20;87.20;;;;;;5081325;28;20808;-70
2022/09/06 05:21:03;;;;;;;5.80;5.30;;;18.20;87.10;;;;;;5084448;28;20425;-69
2022/09/06 05:23:31;;;;;;;5.70;5.20;;;18.20;86.90;;;;;;5087989;28;20413;-70
2022/09/06 05:25:58;;;;;;;6.05;5.45;;;18.20;86.60;;;;;;5088042;28;20715;-69
2022/09/06 05:28:24;;;;;;;6.20;5.60;;;18.20;86.40;;;;;;5087321;28;20497;-71
2022/09/06 05:30:51;;;;;;;8.30;5.40;;;18.20;86.30;;;;;;5084173;28;20425;-70
2022/09/06 05:33:21;;;;;;;5.50;5.00;;;18.20;86.80;;;;;;5086622;28;20907;-70
2022/09/06 05:35:48;;;;;;;5.63;5.13;;;18.20;85.70;;;;;;5086659;28;20497;-70
2022/09/06 05:38:15;;;;;;;6.03;5.05;;;18.20;85.70;;;;;;5087539;28;20487;-69
2022/09/06 05:40:43;;;;;;;6.18;5.10;;;18.30;84.80;;;;;;5085405;28;20433;-71
2022/09/06 05:43:09;;;;;;;6.40;5.10;;;18.30;83.50;;;;;;5084311;28;20426;-70
2022/09/06 05:45:36;;;;;;;8.52;5.82;;;18.30;83.40;;;;;;5084959;28;20441;-70
2022/09/06 05:48:03;;;;;;;8.88;6.78;;;18.30;82.90;;;;;;5084964;28;20449;-72
2022/09/06 05:50:30;;;;;;;6.90;6.30;;;18.30;83.80;;;;;;5076379;28;20433;-72
2022/09/06 05:52:57;;;;;;;8.07;6.15;;;18.30;83.40;;;;;;5085877;28;20508;-72
2022/09/06 05:55:23;;;;;;;6.70;5.68;;;18.30;83.40;;;;;;5079042;28;20594;-71
2022/09/06 05:57:51;;;;;;;6.40;5.80;;;18.40;83.60;;;;;;5083596;28;20514;-71
2022/09/06 06:00:18;;;;;;;6.30;5.50;;;18.40;83.80;;;;;;5085030;28;20441;-71
2022/09/06 06:02:47;;;;;;;5.53;5.03;;;18.40;83.80;;;;;;5083526;28;20930;-71
2022/09/06 06:05:14;;;;;;;6.78;5.68;;;18.50;83.40;;;;;;5085833;28;20433;-71
2022/09/06 06:07:41;;;;;;;6.70;6.10;;;18.60;83.70;;;;;;5084292;28;20425;-71
2022/09/06 06:10:08;;;;;;;6.30;5.70;;;18.60;82.50;;;;;;5076554;28;21029;-71
2022/09/06 06:12:35;;;;;;;6.40;5.90;;;18.70;81.80;;;;;;5069545;28;20939;-72
2022/09/06 06:15:04;;;;;;;6.60;5.85;;;18.70;81.40;;;;;;5084161;28;20455;-70
2022/09/06 06:17:31;;;;;;;7.70;5.30;;;18.70;79.80;;;;;;5083833;28;20443;-70
2022/09/06 06:19:58;;;;;;;7.82;5.70;;;18.80;79.20;;;;;;5084507;28;20410;-70
2022/09/06 06:22:24;;;;;;;6.20;5.60;;;18.90;79.50;;;;;;5085292;28;21021;-71
2022/09/06 06:24:51;;;;;;;12.75;6.68;;;18.90;80.10;;;;;;5086682;28;20410;-71
2022/09/06 06:27:18;;;;;;;10.48;5.40;;;19.00;80.70;;;;;;5085701;28;20794;-70
2022/09/06 06:29:44;;;;;;;6.80;5.50;;;19.10;80.30;;;;;;5087205;28;20410;-70
2022/09/06 06:32:12;;;;;;;7.47;4.93;;;19.20;79.40;;;;;;5086665;28;20414;-71
2022/09/06 06:34:39;;;;;;;8.47;5.77;;;19.30;80.00;;;;;;5086738;28;20575;-70
2022/09/06 06:37:06;;;;;;;6.22;4.80;;;19.30;78.80;;;;;;5085882;28;20505;-71
2022/09/06 06:39:33;;;;;;;6.00;5.15;;;19.40;78.50;;;;;;5084904;28;20421;-70
2022/09/06 06:41:59;;;;;;;6.60;4.85;;;19.40;78.10;;;;;;5082836;28;20482;-70
2022/09/06 06:44:27;;;;;;;5.20;4.70;;;19.50;77.20;;;;;;5084595;28;20906;-69
2022/09/06 06:46:56;;;;;;;4.97;4.45;;;19.60;77.00;;;;;;5086305;28;20794;-69
2022/09/06 06:49:24;;;;;;;5.13;3.88;;;19.60;77.00;;;;;;5089364;28;21009;-70
2022/09/06 06:51:51;;;;;;;4.30;3.90;;;19.70;76.80;;;;;;5084895;28;20414;-69
2022/09/06 06:54:18;;;;;;;5.22;3.90;;;19.90;75.10;;;;;;5086415;28;20441;-70
2022/09/06 06:56:45;;;;;;;4.57;4.00;;;20.00;74.10;;;;;;5088894;28;20417;-70
2022/09/06 06:59:13;;;;;;;5.07;4.00;;;20.10;73.80;;;;;;5088413;28;20454;-70
2022/09/06 07:01:40;;;;;;;5.00;3.60;;;20.20;73.40;;;;;;5087703;28;20444;-69
2022/09/06 07:04:09;;;;;;;4.25;3.50;;;20.20;72.90;;;;;;5086249;28;20433;-70
2022/09/06 07:06:48;;;;;;;4.28;3.15;;;20.30;72.40;;;;;;5086329;28;20456;-70
2022/09/06 07:09:16;;;;;;;5.28;3.17;;;20.40;71.40;;;;;;5087605;28;21051;-71
2022/09/06 07:11:43;;;;;;;4.88;3.50;;;20.50;70.70;;;;;;5086097;28;20795;-69
2022/09/06 07:14:10;;;;;;;5.32;3.67;;;20.40;70.80;;;;;;5083887;28;20918;-67
2022/09/06 07:16:37;;;;;;;5.28;3.20;;;20.60;71.00;;;;;;5082250;28;20442;-65
2022/09/06 07:19:03;;;;;;;6.40;3.45;;;20.70;69.00;;;;;;5084653;28;20542;-65
2022/09/06 07:21:30;;;;;;;3.53;3.10;;;20.80;68.70;;;;;;5084071;28;20444;-66
2022/09/06 07:23:58;;;;;;;5.25;3.20;;;20.90;68.50;;;;;;5080196;28;20437;-66
2022/09/06 07:26:28;;;;;;;4.97;2.90;;;21.00;68.30;;;;;;5076260;28;20517;-67
2022/09/06 07:28:55;;;;;;;6.40;3.17;;;21.20;67.20;;;;;;5076490;28;20424;-66
2022/09/06 07:31:22;;;;;;;5.03;3.10;;;21.30;66.60;;;;;;5083044;28;20414;-68
2022/09/06 07:33:49;;;;;;;5.00;3.10;;;21.40;66.10;;;;;;5082897;28;20460;-68
2022/09/06 07:36:16;;;;;;;6.03;2.83;;;21.50;65.00;;;;;;5081849;28;20509;-68
2022/09/06 07:38:47;;;;;;;5.53;2.97;;;21.70;64.60;;;;;;5075384;28;20436;-68
2022/09/06 07:41:16;;;;;;;4.82;2.90;;;21.80;64.00;;;;;;5083184;28;20417;-68
2022/09/06 07:43:43;;;;;;;5.00;2.80;;;21.90;63.50;;;;;;5082847;28;20436;-67
2022/09/06 07:46:12;;;;;;;4.30;2.85;;;22.10;62.30;;;;;;5083546;28;20449;-67
2022/09/06 07:48:41;;;;;;;4.25;2.70;;;22.10;62.00;;;;;;5078946;28;20465;-67
2022/09/06 07:51:10;;;;;;;5.40;2.38;;;22.30;61.40;;;;;;5080709;28;20533;-66
2022/09/06 07:53:38;;;;;;;5.30;2.65;;;22.40;61.20;;;;;;5075869;28;20732;-68
2022/09/06 07:56:06;;;;;;;3.65;2.70;;;22.60;60.70;;;;;;5083175;28;20433;-68
2022/09/06 07:58:35;;;;;;;2.90;2.10;;;22.90;60.70;;;;;;5075912;28;20414;-68
2022/09/06 08:01:16;;;;;;;2.55;2.00;;;23.10;59.20;;;;;;5080944;28;20533;-67
2022/09/06 08:03:43;;;;;;;3.80;2.10;;;23.30;58.90;;;;;;5083895;28;20432;-67
2022/09/06 08:06:10;;;;;;;3.40;1.90;;;23.50;57.60;;;;;;5081998;28;20849;-67
2022/09/06 08:08:37;;;;;;;2.88;1.85;;;23.70;56.60;;;;;;5083167;28;20524;-65
2022/09/06 08:11:05;;;;;;;3.25;1.80;;;23.80;56.00;;;;;;5082934;28;20418;-69
2022/09/06 08:13:31;;;;;;;1.97;1.60;;;23.70;55.80;;;;;;5076128;28;20453;-67
2022/09/06 08:16:00;;;;;;;3.40;1.70;;;24.00;55.70;;;;;;5083584;28;20448;-67
2022/09/06 08:18:27;;;;;;;2.30;1.60;;;24.20;53.90;;;;;;5080452;28;20451;-66
2022/09/06 08:20:53;;;;;;;2.70;1.60;;;24.40;53.40;;;;;;5082472;28;20441;-67
2022/09/06 08:23:20;;;;;;;3.00;1.70;;;24.40;53.60;;;;;;5083096;28;20449;-68
2022/09/06 08:25:56;;;;;;;2.50;1.50;;;24.60;53.00;;;;;;5083839;28;20430;-67
2022/09/06 08:28:23;;;;;;;2.67;1.60;;;24.80;52.80;;;;;;5084019;28;20410;-67
2022/09/06 08:30:50;;;;;;;4.67;1.60;;;25.00;50.90;;;;;;5079476;28;20431;-67
2022/09/06 08:33:20;;;;;;;2.33;1.40;;;25.10;50.70;;;;;;5080408;28;20418;-67
2022/09/06 08:35:55;;;;;;;2.83;1.70;;;25.20;50.70;;;;;;5083466;28;20490;-67
2022/09/06 08:38:22;;;;;;;5.10;1.42;;;25.30;49.70;;;;;;5082145;28;20553;-67
2022/09/06 08:40:48;;;;;;;7.22;1.90;;;25.40;49.10;;;;;;5083218;28;20414;-67
2022/09/06 08:43:19;;;;;;;3.20;1.30;;;25.60;48.80;;;;;;5082842;28;20440;-66
2022/09/06 08:45:49;;;;;;;3.57;1.60;;;25.80;48.80;;;;;;5082771;28;20424;-67
2022/09/06 08:48:16;;;;;;;2.27;1.50;;;26.00;48.90;;;;;;5082193;28;20815;-67
2022/09/06 08:50:57;;;;;;;3.77;1.30;;;26.20;47.70;;;;;;5080938;28;20437;-67
2022/09/06 08:53:24;;;;;;;2.53;1.48;;;26.40;47.50;;;;;;5082108;28;20456;-68
2022/09/06 08:55:55;;;;;;;3.97;1.70;;;26.70;46.60;;;;;;5077264;28;20498;-68
2022/09/06 08:58:34;;;;;;;2.80;1.43;;;26.90;46.30;;;;;;5081743;28;20516;-68
2022/09/06 09:01:04;;;;;;;1.75;1.40;;;27.10;46.20;;;;;;5082566;28;20437;-68
2022/09/06 09:03:33;;;;;;;1.45;1.08;;;27.30;44.40;;;;;;5075759;28;20452;-67
2022/09/06 09:06:04;;;;;;;1.90;1.30;;;27.40;44.10;;;;;;5083060;28;20424;-67
2022/09/06 09:08:36;;;;;;;2.45;1.20;;;27.60;43.20;;;;;;5083026;28;20504;-67
2022/09/06 09:11:05;;;;;;;5.03;2.40;;;27.60;43.50;;;;;;5082980;28;20414;-68
2022/09/06 09:13:38;;;;;;;3.47;1.40;;;27.90;42.90;;;;;;5083216;28;20486;-67
2022/09/06 09:16:05;;;;;;;5.97;2.15;;;28.00;43.30;;;;;;5078057;28;20433;-67
2022/09/06 09:18:34;;;;;;;1.58;1.30;;;28.10;43.00;;;;;;5082636;28;20421;-66
2022/09/06 09:21:03;;;;;;;6.00;1.70;;;28.20;42.30;;;;;;5082605;28;21098;-67
2022/09/06 09:23:30;;;;;;;2.60;2.40;;;28.20;42.50;;;;;;5082776;28;20426;-68
2022/09/06 09:26:03;;;;;;;2.25;1.20;;;28.40;41.10;;;;;;5080820;28;20828;-67
2022/09/06 09:28:29;;;;;;;1.70;1.10;;;28.60;40.80;;;;;;5083256;28;20432;-67
2022/09/06 09:30:57;;;;;;;2.08;1.20;;;28.60;41.00;;;;;;5082902;28;20433;-67
2022/09/06 09:33:30;;;;;;;1.40;0.80;;;29.00;40.30;;;;;;5083811;28;20448;-68
2022/09/06 09:35:59;;;;;;;0.90;0.70;;;29.20;39.70;;;;;;5086509;28;20827;-67
2022/09/06 09:38:30;;;;;;;1.92;0.93;;;29.20;38.60;;;;;;5077539;28;20415;-68
2022/09/06 09:40:59;;;;;;;3.07;1.03;;;29.10;38.80;;;;;;5087055;28;20417;-67
2022/09/06 09:43:30;;;;;;;2.58;0.90;;;29.20;38.60;;;;;;5086575;28;20480;-68
2022/09/06 09:46:14;;;;;;;2.00;1.07;;;29.40;38.70;;;;;;5086176;28;20448;-68
2022/09/06 09:48:43;;;;;;;1.48;1.00;;;29.70;38.40;;;;;;5085949;28;20425;-68
2022/09/06 09:51:22;;;;;;;2.90;0.95;;;30.00;37.70;;;;;;5084912;28;20418;-67
2022/09/06 09:53:53;;;;;;;3.30;0.90;;;30.20;35.90;;;;;;5074293;28;20899;-67
2022/09/06 09:56:28;;;;;;;2.60;1.00;;;30.30;36.90;;;;;;5086827;28;20841;-68
2022/09/06 09:58:56;;;;;;;1.52;0.80;;;30.50;36.80;;;;;;5082606;28;21194;-67
2022/09/06 10:01:27;;;;;;;1.95;0.90;;;30.70;36.60;;;;;;5083192;28;20932;-66
2022/09/06 10:04:02;;;;;;;1.48;0.73;;;30.60;35.70;;;;;;5079748;28;20514;-67
2022/09/06 10:06:28;;;;;;;1.77;0.90;;;30.70;35.70;;;;;;5086465;28;20425;-68
2022/09/06 10:08:57;;;;;;;1.65;0.80;;;30.80;35.90;;;;;;5086633;28;20517;-68
2022/09/06 10:11:47;;;;;;;2.00;0.80;;;30.90;35.40;;;;;;5086139;28;20940;-66
2022/09/06 10:14:25;;;;;;;1.30;0.70;;;31.10;35.10;;;;;;5084399;28;20465;-68
2022/09/06 10:16:52;;;;;;;1.45;0.70;;;31.30;35.20;;;;;;5080915;28;20438;-68
2022/09/06 10:19:29;;;;;;;1.90;0.98;;;31.40;34.10;;;;;;5086682;28;20505;-66
2022/09/06 10:22:03;;;;;;;1.92;0.90;;;31.70;33.90;;;;;;5085769;28;20414;-69
2022/09/06 10:24:43;;;;;;;1.70;0.90;;;31.90;34.00;;;;;;5084641;28;20437;-66
2022/09/06 10:27:18;;;;;;;1.90;0.80;;;32.00;32.80;;;;;;5085328;28;20426;-68
2022/09/06 10:29:51;;;;;;;1.17;0.80;;;32.20;33.20;;;;;;5085625;28;20433;-68
2022/09/06 10:32:34;;;;;;;0.90;0.75;;;32.30;33.20;;;;;;5084820;28;20465;-68
2022/09/06 10:35:15;;;;;;;0.80;0.80;;;32.40;32.50;;;;;;5085888;28;20441;-68
2022/09/06 10:37:53;;;;;;;1.40;0.90;;;32.60;32.60;;;;;;5086316;28;20413;-68
2022/09/06 10:40:29;;;;;;;1.23;0.80;;;32.80;32.10;;;;;;5086005;28;20508;-69
2022/09/06 10:42:59;;;;;;;1.03;0.80;;;32.90;32.10;;;;;;5085602;28;20527;-68
2022/09/06 10:45:45;;;;;;;1.73;1.10;;;32.90;31.70;;;;;;5084771;28;20433;-68
2022/09/06 10:48:19;;;;;;;1.60;0.80;;;33.00;32.30;;;;;;5086366;28;20417;-68
2022/09/06 10:50:52;;;;;;;0.95;0.85;;;33.10;32.00;;;;;;5085796;28;20518;-67
2022/09/06 10:53:36;;;;;;;2.05;0.88;;;33.30;31.80;;;;;;5085630;28;20405;-67
2022/09/06 10:56:11;;;;;;;1.90;0.95;;;33.40;31.10;;;;;;5086084;28;20421;-68
2022/09/06 10:58:49;;;;;;;1.83;1.00;;;33.30;31.00;;;;;;5080035;28;20430;-68
2022/09/06 11:01:26;;;;;;;1.88;0.90;;;33.70;32.00;;;;;;5083631;28;20406;-68
2022/09/06 11:03:57;;;;;;;0.90;0.80;;;33.80;31.20;;;;;;5083779;28;20430;-68
2022/09/06 11:06:28;;;;;;;2.33;0.80;;;34.00;30.70;;;;;;5084440;28;20422;-68
2022/09/06 11:09:01;;;;;;;1.10;0.80;;;33.90;30.20;;;;;;5086060;28;20435;-68
2022/09/06 11:11:35;;;;;;;1.60;0.90;;;34.00;30.50;;;;;;5085451;28;20410;-66
2022/09/06 11:14:07;;;;;;;1.35;0.77;;;34.00;30.40;;;;;;5084934;28;20436;-67
2022/09/06 11:16:40;;;;;;;1.83;0.63;;;34.10;30.60;;;;;;5085650;28;20508;-67
2022/09/06 11:19:13;;;;;;;1.98;0.70;;;34.20;30.00;;;;;;5084492;28;20436;-67
2022/09/06 11:22:11;;;;;;;1.10;0.80;;;34.10;30.40;;;;;;5075754;28;20429;-66
2022/09/06 11:24:57;;;;;;;1.67;0.80;;;34.10;30.30;;;;;;5079539;28;20500;-66
2022/09/06 11:27:34;;;;;;;1.38;0.77;;;34.40;30.40;;;;;;5072031;28;20528;-66
2022/09/06 11:30:04;;;;;;;2.55;0.80;;;34.50;29.70;;;;;;5082023;28;20430;-68
2022/09/06 11:32:36;;;;;;;0.90;0.80;;;34.60;29.10;;;;;;5084763;28;20491;-68
2022/09/06 11:35:08;;;;;;;1.30;0.77;;;34.40;29.20;;;;;;5084933;28;20898;-65
2022/09/06 11:37:39;;;;;;;1.23;0.73;;;34.10;29.80;;;;;;5084220;28;20948;-66
2022/09/06 11:40:14;;;;;;;1.23;1.00;;;34.10;30.50;;;;;;5085320;28;20410;-66
2022/09/06 11:43:16;;;;;;;2.70;0.80;;;34.30;30.20;;;;;;5082468;28;20426;-75
2022/09/06 11:45:46;;;;;;;1.73;0.80;;;34.50;30.00;;;;;;5079318;28;20950;-77
2022/09/06 11:48:43;;;;;;;1.73;1.00;;;34.80;30.20;;;;;;5086712;28;20911;-77
2022/09/06 11:51:11;;;;;;;3.85;1.10;;;35.00;29.10;;;;;;5084439;28;20769;-75
2022/09/06 11:54:08;;;;;;;2.30;0.90;;;35.20;28.60;;;;;;5085739;28;20422;-76
2022/09/06 11:56:42;;;;;;;1.40;0.80;;;35.40;29.40;;;;;;5085142;28;21086;-76
2022/09/06 11:59:29;;;;;;;1.13;0.80;;;35.60;28.90;;;;;;5084128;28;20426;-76
2022/09/06 12:02:04;;;;;;;2.90;1.00;;;35.80;28.60;;;;;;5085866;28;20417;-76
2022/09/06 12:05:09;;;;;;;1.48;0.70;;;36.00;28.60;;;;;;5084249;28;20798;-76
2022/09/06 12:07:37;;;;;;;1.80;0.80;;;36.10;28.00;;;;;;5077013;28;20520;-76
2022/09/06 12:10:45;;;;;;;0.90;0.80;;;36.10;27.50;;;;;;5086894;28;20458;-78
2022/09/06 12:13:41;;;;;;;2.03;1.00;;;36.10;27.60;;;;;;5098500;22;20424;-78
2022/09/06 12:16:11;;;;;;;1.92;0.73;;;36.20;27.40;;;;;;5097877;28;20428;-77
2022/09/06 12:19:11;;;;;;;1.70;1.00;;;36.50;28.00;;;;;;5109528;28;20419;-77
2022/09/06 12:21:46;;;;;;;2.40;0.77;;;36.60;27.20;;;;;;5108734;28;20423;-77
2022/09/06 12:24:46;;;;;;;1.80;0.80;;;36.50;27.10;;;;;;5099282;28;20450;-77
2022/09/06 12:27:15;;;;;;;1.45;0.80;;;36.50;26.80;;;;;;5102222;28;20436;-76
2022/09/06 12:29:56;;;;;;;2.60;0.90;;;36.70;26.70;;;;;;5113290;27;20433;-77
2022/09/06 12:32:28;;;;;;;1.40;0.80;;;37.10;26.80;;;;;;5102102;28;20416;-78
2022/09/06 12:34:56;;;;;;;1.10;1.00;;;37.20;27.10;;;;;;5104239;28;20498;-78
2022/09/06 12:37:36;;;;;;;1.33;1.00;;;37.20;26.50;;;;;;5106716;28;20435;-76
2022/09/06 12:40:06;;;;;;;2.77;0.90;;;37.10;26.80;;;;;;5101159;28;20966;-77
2022/09/06 12:42:35;;;;;;;2.70;0.80;;;37.00;27.20;;;;;;5099245;28;20412;-78
2022/09/06 12:45:04;;;;;;;3.20;0.90;;;37.20;26.80;;;;;;5105596;28;20839;-76
2022/09/06 12:47:35;;;;;;;1.33;0.70;;;37.40;26.80;;;;;;5095723;28;20428;-77
2022/09/06 12:50:16;;;;;;;2.08;0.93;;;37.60;26.40;;;;;;5106039;28;20462;-78
2022/09/06 12:52:51;;;;;;;0.70;0.70;;;37.60;26.40;;;;;;5127867;28;20418;-78
2022/09/06 12:55:22;;;;;;;2.60;0.88;;;37.60;26.90;;;;;;5102294;28;20421;-78
2022/09/06 12:57:51;;;;;;;1.15;0.93;;;37.30;26.10;;;;;;5107001;28;20412;-77
2022/09/06 13:00:19;;;;;;;3.40;0.98;;;36.80;26.30;;;;;;5107434;28;20408;-77
2022/09/06 13:02:56;;;;;;;1.83;1.00;;;36.60;26.90;;;;;;5105700;28;20412;-77
2022/09/06 13:05:23;;;;;;;2.30;0.80;;;36.70;27.40;;;;;;5109152;28;20439;-77
2022/09/06 13:07:53;;;;;;;1.75;0.70;;;36.80;26.00;;;;;;5110376;28;20419;-77